sensor_id;sensor_type;location;lat;lon;timestamp;pressure;altitude;pressure_sealevel;temperature;humidity
27984;BME280;15317;50.360;8.726;2024-02-15T00:01:29;99858.97;;;9.42;100.00
27984;BME280;15317;50.360;8.726;2024-02-15T00:06:33;99863.97;;;9.37;100.00
27984;BME280;15317;50.360;8.726;2024-02-15T00:11:37;99862.13;;;9.37;100.00
27984;BME280;15317;50.360;8.726;2024-02-15T00:16:42;99858.69;;;9.35;100.00
27984;BME280;15317;50.360;8.726;2024-02-15T00:21:46;99867.28;;;9.31;100.00
27984;BME280;15317;50.360;8.726;2024-02-15T00:26:49;99864.41;;;9.42;100.00
27984;BME280;15317;50.360;8.726;2024-02-15T00:31:54;99864.72;;;9.39;100.00
27984;BME280;15317;50.360;8.726;2024-02-15T00:36:58;99860.84;;;9.32;100.00
27984;BME280;15317;50.360;8.726;2024-02-15T00:42:01;99859.72;;;9.34;100.00
27984;BME280;15317;50.360;8.726;2024-02-15T00:47:07;99860.84;;;9.32;100.00
27984;BME280;15317;50.360;8.726;2024-02-15T00:52:11;99856.44;;;9.31;100.00
27984;BME280;15317;50.360;8.726;2024-02-15T00:57:14;99855.84;;;9.08;100.00
27984;BME280;15317;50.360;8.726;2024-02-15T01:02:19;99857.41;;;9.01;100.00
27984;BME280;15317;50.360;8.726;2024-02-15T01:07:23;99850.72;;;9.05;100.00
27984;BME280;15317;50.360;8.726;2024-02-15T01:12:29;99858.13;;;9.03;100.00
27984;BME280;15317;50.360;8.726;2024-02-15T01:17:35;99864.41;;;9.03;100.00
27984;BME280;15317;50.360;8.726;2024-02-15T01:22:39;99868.09;;;9.02;100.00
27984;BME280;15317;50.360;8.726;2024-02-15T01:27:42;99857.00;;;9.05;100.00
27984;BME280;15317;50.360;8.726;2024-02-15T01:32:47;99858.72;;;9.06;100.00
27984;BME280;15317;50.360;8.726;2024-02-15T01:37:51;99856.72;;;9.18;100.00
27984;BME280;15317;50.360;8.726;2024-02-15T01:42:54;99849.16;;;9.22;100.00
27984;BME280;15317;50.360;8.726;2024-02-15T01:48:03;99842.72;;;9.23;100.00
27984;BME280;15317;50.360;8.726;2024-02-15T01:53:08;99844.75;;;9.21;100.00
27984;BME280;15317;50.360;8.726;2024-02-15T01:58:13;99848.16;;;9.23;100.00
27984;BME280;15317;50.360;8.726;2024-02-15T02:03:21;99843.59;;;9.23;100.00
27984;BME280;15317;50.360;8.726;2024-02-15T02:08:25;99852.72;;;9.22;100.00
27984;BME280;15317;50.360;8.726;2024-02-15T02:13:29;99848.44;;;9.29;100.00
27984;BME280;15317;50.360;8.726;2024-02-15T02:18:34;99834.19;;;9.27;100.00
27984;BME280;15317;50.360;8.726;2024-02-15T02:23:38;99838.75;;;9.27;100.00
27984;BME280;15317;50.360;8.726;2024-02-15T02:28:43;99842.16;;;9.29;100.00
27984;BME280;15317;50.360;8.726;2024-02-15T02:33:48;99829.63;;;9.28;100.00
27984;BME280;15317;50.360;8.726;2024-02-15T02:38:54;99833.34;;;9.27;100.00
27984;BME280;15317;50.360;8.726;2024-02-15T02:43:59;99834.47;;;9.24;100.00
27984;BME280;15317;50.360;8.726;2024-02-15T02:49:02;99832.63;;;9.25;100.00
27984;BME280;15317;50.360;8.726;2024-02-15T02:54:06;99839.31;;;9.30;100.00
27984;BME280;15317;50.360;8.726;2024-02-15T02:59:11;99832.75;;;9.23;100.00
27984;BME280;15317;50.360;8.726;2024-02-15T03:04:15;99840.47;;;9.28;100.00
27984;BME280;15317;50.360;8.726;2024-02-15T03:09:19;99829.03;;;9.24;100.00
27984;BME280;15317;50.360;8.726;2024-02-15T03:14:24;99824.47;;;9.25;100.00
27984;BME280;15317;50.360;8.726;2024-02-15T03:19:27;99830.63;;;9.27;100.00
27984;BME280;15317;50.360;8.726;2024-02-15T03:24:33;99833.03;;;9.30;100.00
27984;BME280;15317;50.360;8.726;2024-02-15T03:29:37;99837.31;;;9.32;100.00
27984;BME280;15317;50.360;8.726;2024-02-15T03:34:40;99829.06;;;9.34;100.00
27984;BME280;15317;50.360;8.726;2024-02-15T03:39:44;99822.19;;;9.39;100.00
27984;BME280;15317;50.360;8.726;2024-02-15T03:44:49;99827.03;;;9.36;100.00
27984;BME280;15317;50.360;8.726;2024-02-15T03:49:52;99821.03;;;9.42;100.00
27984;BME280;15317;50.360;8.726;2024-02-15T03:54:56;99819.19;;;9.33;100.00
27984;BME280;15317;50.360;8.726;2024-02-15T04:00:01;99816.19;;;9.36;100.00
27984;BME280;15317;50.360;8.726;2024-02-15T04:05:07;99817.31;;;9.43;100.00
27984;BME280;15317;50.360;8.726;2024-02-15T04:10:11;99820.19;;;9.41;100.00
27984;BME280;15317;50.360;8.726;2024-02-15T04:15:16;99814.47;;;9.35;100.00
27984;BME280;15317;50.360;8.726;2024-02-15T04:20:21;99814.63;;;9.33;100.00
27984;BME280;15317;50.360;8.726;2024-02-15T04:25:24;99817.06;;;9.27;100.00
27984;BME280;15317;50.360;8.726;2024-02-15T04:30:31;99829.63;;;9.28;100.00
27984;BME280;15317;50.360;8.726;2024-02-15T04:35:37;99823.75;;;9.23;100.00
27984;BME280;15317;50.360;8.726;2024-02-15T04:40:40;99827.03;;;9.17;100.00
27984;BME280;15317;50.360;8.726;2024-02-15T04:45:45;99817.50;;;9.13;100.00
27984;BME280;15317;50.360;8.726;2024-02-15T04:50:48;99819.94;;;9.06;100.00
27984;BME280;15317;50.360;8.726;2024-02-15T04:55:52;99800.66;;;8.99;100.00
27984;BME280;15317;50.360;8.726;2024-02-15T05:00:58;99797.25;;;8.97;100.00
27984;BME280;15317;50.360;8.726;2024-02-15T05:06:02;99798.97;;;8.98;100.00
27984;BME280;15317;50.360;8.726;2024-02-15T05:11:07;99797.50;;;8.94;100.00
27984;BME280;15317;50.360;8.726;2024-02-15T05:16:16;99793.66;;;8.97;100.00
27984;BME280;15317;50.360;8.726;2024-02-15T05:21:20;99784.25;;;9.01;100.00
27984;BME280;15317;50.360;8.726;2024-02-15T05:26:24;99789.66;;;9.01;100.00
27984;BME280;15317;50.360;8.726;2024-02-15T05:31:28;99794.53;;;8.97;100.00
27984;BME280;15317;50.360;8.726;2024-02-15T05:36:31;99798.22;;;8.96;100.00
27984;BME280;15317;50.360;8.726;2024-02-15T05:41:36;99812.63;;;8.97;100.00
27984;BME280;15317;50.360;8.726;2024-02-15T05:46:40;99812.06;;;8.93;100.00
27984;BME280;15317;50.360;8.726;2024-02-15T05:51:44;99806.78;;;8.92;100.00
27984;BME280;15317;50.360;8.726;2024-02-15T05:56:49;99806.78;;;8.92;100.00
27984;BME280;15317;50.360;8.726;2024-02-15T06:01:56;99806.78;;;8.92;100.00
27984;BME280;15317;50.360;8.726;2024-02-15T06:07:00;99803.38;;;8.90;100.00
27984;BME280;15317;50.360;8.726;2024-02-15T06:12:04;99802.50;;;8.89;100.00
27984;BME280;15317;50.360;8.726;2024-02-15T06:17:09;99800.09;;;8.86;100.00
27984;BME280;15317;50.360;8.726;2024-02-15T06:22:12;99817.03;;;8.88;100.00
27984;BME280;15317;50.360;8.726;2024-02-15T06:27:16;99810.22;;;8.84;100.00
27984;BME280;15317;50.360;8.726;2024-02-15T06:32:21;99809.34;;;8.84;100.00
27984;BME280;15317;50.360;8.726;2024-02-15T06:37:42;99808.50;;;8.83;100.00
27984;BME280;15317;50.360;8.726;2024-02-15T06:43:03;99792.25;;;8.83;100.00
27984;BME280;15317;50.360;8.726;2024-02-15T06:48:08;99789.53;;;8.83;100.00
27984;BME280;15317;50.360;8.726;2024-02-15T06:53:11;99788.97;;;8.99;100.00
27984;BME280;15317;50.360;8.726;2024-02-15T06:58:15;99787.69;;;8.93;100.00
27984;BME280;15317;50.360;8.726;2024-02-15T07:03:19;99786.84;;;8.93;100.00
27984;BME280;15317;50.360;8.726;2024-02-15T07:08:24;99781.84;;;8.98;100.00
27984;BME280;15317;50.360;8.726;2024-02-15T07:13:28;99786.81;;;9.02;100.00
27984;BME280;15317;50.360;8.726;2024-02-15T07:18:32;99785.84;;;9.03;100.00
27984;BME280;15317;50.360;8.726;2024-02-15T07:23:36;99782.53;;;9.09;100.00
27984;BME280;15317;50.360;8.726;2024-02-15T07:28:39;99791.81;;;9.17;100.00
27984;BME280;15317;50.360;8.726;2024-02-15T07:33:45;99789.53;;;9.31;100.00
27984;BME280;15317;50.360;8.726;2024-02-15T07:38:49;99791.09;;;9.34;100.00
27984;BME280;15317;50.360;8.726;2024-02-15T07:43:53;99796.63;;;9.42;100.00
27984;BME280;15317;50.360;8.726;2024-02-15T07:48:58;99796.91;;;9.48;100.00
27984;BME280;15317;50.360;8.726;2024-02-15T07:54:03;99810.44;;;9.48;100.00
27984;BME280;15317;50.360;8.726;2024-02-15T07:59:06;99813.34;;;9.47;100.00
27984;BME280;15317;50.360;8.726;2024-02-15T08:04:11;99811.03;;;9.52;100.00
27984;BME280;15317;50.360;8.726;2024-02-15T08:09:18;99806.41;;;9.72;100.00
27984;BME280;15317;50.360;8.726;2024-02-15T08:14:24;99791.84;;;9.82;100.00
27984;BME280;15317;50.360;8.726;2024-02-15T08:19:29;99804.38;;;9.93;100.00
27984;BME280;15317;50.360;8.726;2024-02-15T08:24:32;99798.16;;;10.10;100.00
27984;BME280;15317;50.360;8.726;2024-02-15T08:29:35;99811.56;;;10.12;100.00
27984;BME280;15317;50.360;8.726;2024-02-15T08:34:40;99820.38;;;10.33;100.00
27984;BME280;15317;50.360;8.726;2024-02-15T08:39:44;99826.56;;;10.53;100.00
27984;BME280;15317;50.360;8.726;2024-02-15T08:44:47;99825.75;;;10.70;100.00
27984;BME280;15317;50.360;8.726;2024-02-15T08:49:51;99835.16;;;10.76;100.00
27984;BME280;15317;50.360;8.726;2024-02-15T08:54:55;99827.09;;;10.84;100.00
27984;BME280;15317;50.360;8.726;2024-02-15T08:59:59;99827.78;;;10.86;100.00
27984;BME280;15317;50.360;8.726;2024-02-15T09:05:04;99834.41;;;11.01;100.00
27984;BME280;15317;50.360;8.726;2024-02-15T09:10:08;99820.59;;;11.12;100.00
27984;BME280;15317;50.360;8.726;2024-02-15T09:15:13;99818.47;;;11.06;100.00
27984;BME280;15317;50.360;8.726;2024-02-15T09:20:17;99816.31;;;11.09;100.00
27984;BME280;15317;50.360;8.726;2024-02-15T09:25:22;99813.13;;;11.14;100.00
27984;BME280;15317;50.360;8.726;2024-02-15T09:30:26;99801.47;;;11.39;100.00
27984;BME280;15317;50.360;8.726;2024-02-15T09:35:31;99808.78;;;11.65;100.00
27984;BME280;15317;50.360;8.726;2024-02-15T09:40:35;99787.34;;;11.62;100.00
27984;BME280;15317;50.360;8.726;2024-02-15T09:45:38;99806.59;;;11.68;100.00
27984;BME280;15317;50.360;8.726;2024-02-15T09:50:44;99793.91;;;12.03;100.00
27984;BME280;15317;50.360;8.726;2024-02-15T09:55:49;99790.41;;;12.10;100.00
27984;BME280;15317;50.360;8.726;2024-02-15T10:00:52;99787.06;;;12.24;100.00
27984;BME280;15317;50.360;8.726;2024-02-15T10:05:57;99783.09;;;12.11;100.00
27984;BME280;15317;50.360;8.726;2024-02-15T10:11:07;99787.63;;;12.02;100.00
27984;BME280;15317;50.360;8.726;2024-02-15T10:16:15;99788.31;;;12.04;100.00
27984;BME280;15317;50.360;8.726;2024-02-15T10:21:26;99786.22;;;12.24;100.00
27984;BME280;15317;50.360;8.726;2024-02-15T10:26:32;99777.09;;;12.49;100.00
27984;BME280;15317;50.360;8.726;2024-02-15T10:31:38;99784.63;;;13.46;100.00
27984;BME280;15317;50.360;8.726;2024-02-15T10:36:44;99777.50;;;14.16;100.00
27984;BME280;15317;50.360;8.726;2024-02-15T10:41:48;99764.28;;;14.36;100.00
27984;BME280;15317;50.360;8.726;2024-02-15T10:46:52;99755.28;;;14.67;100.00
27984;BME280;15317;50.360;8.726;2024-02-15T10:51:58;99750.88;;;15.11;100.00
27984;BME280;15317;50.360;8.726;2024-02-15T10:57:06;99749.38;;;15.69;100.00
27984;BME280;15317;50.360;8.726;2024-02-15T11:02:23;99742.84;;;15.70;100.00
27984;BME280;15317;50.360;8.726;2024-02-15T11:07:31;99741.56;;;15.80;100.00
27984;BME280;15317;50.360;8.726;2024-02-15T11:12:35;99740.03;;;15.40;100.00
27984;BME280;15317;50.360;8.726;2024-02-15T11:17:46;99728.50;;;15.68;100.00
27984;BME280;15317;50.360;8.726;2024-02-15T11:22:58;99719.72;;;15.35;100.00
27984;BME280;15317;50.360;8.726;2024-02-15T11:33:39;99704.88;;;14.38;100.00
27984;BME280;15317;50.360;8.726;2024-02-15T11:38:43;99708.09;;;13.95;100.00
27984;BME280;15317;50.360;8.726;2024-02-15T11:43:56;99699.03;;;14.41;100.00
27984;BME280;15317;50.360;8.726;2024-02-15T11:49:00;99701.75;;;14.72;100.00
27984;BME280;15317;50.360;8.726;2024-02-15T11:54:09;99690.63;;;15.71;100.00
27984;BME280;15317;50.360;8.726;2024-02-15T11:59:14;99700.06;;;15.98;100.00
27984;BME280;15317;50.360;8.726;2024-02-15T12:04:31;99693.34;;;16.30;100.00
27984;BME280;15317;50.360;8.726;2024-02-15T12:09:59;99694.41;;;15.70;100.00
27984;BME280;15317;50.360;8.726;2024-02-15T12:15:25;99692.22;;;14.91;100.00
27984;BME280;15317;50.360;8.726;2024-02-15T12:20:58;99688.78;;;14.35;100.00
27984;BME280;15317;50.360;8.726;2024-02-15T12:26:03;99682.72;;;14.25;100.00
27984;BME280;15317;50.360;8.726;2024-02-15T12:31:08;99665.91;;;14.36;100.00
27984;BME280;15317;50.360;8.726;2024-02-15T12:36:15;99659.16;;;14.24;100.00
27984;BME280;15317;50.360;8.726;2024-02-15T12:41:21;99648.34;;;14.31;100.00
27984;BME280;15317;50.360;8.726;2024-02-15T12:46:24;99649.84;;;14.41;100.00
27984;BME280;15317;50.360;8.726;2024-02-15T12:51:30;99645.72;;;14.45;100.00
27984;BME280;15317;50.360;8.726;2024-02-15T12:56:39;99648.38;;;14.53;100.00
27984;BME280;15317;50.360;8.726;2024-02-15T13:01:43;99636.84;;;14.43;100.00
27984;BME280;15317;50.360;8.726;2024-02-15T13:06:48;99638.28;;;14.31;100.00
27984;BME280;15317;50.360;8.726;2024-02-15T13:11:53;99629.25;;;14.53;100.00
27984;BME280;15317;50.360;8.726;2024-02-15T13:16:56;99637.84;;;14.50;100.00
27984;BME280;15317;50.360;8.726;2024-02-15T13:22:01;99622.88;;;14.61;100.00
27984;BME280;15317;50.360;8.726;2024-02-15T13:27:05;99622.88;;;14.61;100.00
27984;BME280;15317;50.360;8.726;2024-02-15T13:32:08;99613.06;;;14.89;100.00
27984;BME280;15317;50.360;8.726;2024-02-15T13:37:14;99608.59;;;15.11;100.00
27984;BME280;15317;50.360;8.726;2024-02-15T13:42:20;99606.53;;;15.13;100.00
27984;BME280;15317;50.360;8.726;2024-02-15T13:47:24;99608.03;;;15.01;100.00
27984;BME280;15317;50.360;8.726;2024-02-15T13:52:27;99592.50;;;14.79;100.00
27984;BME280;15317;50.360;8.726;2024-02-15T13:57:31;99582.88;;;14.83;100.00
27984;BME280;15317;50.360;8.726;2024-02-15T14:02:34;99575.50;;;14.69;100.00
27984;BME280;15317;50.360;8.726;2024-02-15T14:07:38;99577.94;;;14.63;100.00
27984;BME280;15317;50.360;8.726;2024-02-15T14:12:43;99578.28;;;14.60;100.00
27984;BME280;15317;50.360;8.726;2024-02-15T14:17:46;99571.63;;;14.40;100.00
27984;BME280;15317;50.360;8.726;2024-02-15T14:22:50;99556.94;;;14.41;100.00
27984;BME280;15317;50.360;8.726;2024-02-15T14:27:59;99550.47;;;14.34;100.00
27984;BME280;15317;50.360;8.726;2024-02-15T14:33:03;99541.00;;;14.22;100.00
27984;BME280;15317;50.360;8.726;2024-02-15T14:38:09;99543.78;;;14.14;100.00
27984;BME280;15317;50.360;8.726;2024-02-15T14:43:14;99544.94;;;13.97;100.00
27984;BME280;15317;50.360;8.726;2024-02-15T14:48:20;99533.72;;;13.92;100.00
27984;BME280;15317;50.360;8.726;2024-02-15T14:53:26;99535.13;;;13.79;100.00
27984;BME280;15317;50.360;8.726;2024-02-15T14:58:31;99526.66;;;13.66;100.00
27984;BME280;15317;50.360;8.726;2024-02-15T15:03:34;99527.69;;;13.65;100.00
27984;BME280;15317;50.360;8.726;2024-02-15T15:08:40;99514.13;;;13.57;100.00
27984;BME280;15317;50.360;8.726;2024-02-15T15:14:02;99514.78;;;13.51;100.00
27984;BME280;15317;50.360;8.726;2024-02-15T15:19:06;99507.53;;;13.43;100.00
27984;BME280;15317;50.360;8.726;2024-02-15T15:24:10;99516.59;;;13.36;100.00
27984;BME280;15317;50.360;8.726;2024-02-15T15:29:14;99522.41;;;13.25;100.00
27984;BME280;15317;50.360;8.726;2024-02-15T15:34:18;99516.66;;;13.20;100.00
27984;BME280;15317;50.360;8.726;2024-02-15T15:39:21;99506.44;;;13.14;100.00
27984;BME280;15317;50.360;8.726;2024-02-15T15:44:28;99508.16;;;12.98;100.00
27984;BME280;15317;50.360;8.726;2024-02-15T15:49:32;99499.34;;;12.88;100.00
27984;BME280;15317;50.360;8.726;2024-02-15T15:54:39;99466.97;;;12.77;100.00
27984;BME280;15317;50.360;8.726;2024-02-15T15:59:44;99466.31;;;12.75;100.00
27984;BME280;15317;50.360;8.726;2024-02-15T16:04:48;99458.50;;;12.56;100.00
27984;BME280;15317;50.360;8.726;2024-02-15T16:09:56;99469.09;;;12.43;100.00
27984;BME280;15317;50.360;8.726;2024-02-15T16:15:01;99468.78;;;12.38;100.00
27984;BME280;15317;50.360;8.726;2024-02-15T16:20:08;99467.06;;;12.37;100.00
27984;BME280;15317;50.360;8.726;2024-02-15T16:25:13;99457.38;;;12.34;100.00
27984;BME280;15317;50.360;8.726;2024-02-15T16:30:22;99465.56;;;12.18;100.00
27984;BME280;15317;50.360;8.726;2024-02-15T16:35:31;99448.72;;;11.98;100.00
27984;BME280;15317;50.360;8.726;2024-02-15T16:40:38;99446.34;;;11.87;100.00
27984;BME280;15317;50.360;8.726;2024-02-15T16:45:42;99440.19;;;11.85;100.00
27984;BME280;15317;50.360;8.726;2024-02-15T16:50:46;99448.66;;;11.74;100.00
27984;BME280;15317;50.360;8.726;2024-02-15T16:55:49;99441.00;;;11.69;100.00
27984;BME280;15317;50.360;8.726;2024-02-15T17:00:54;99452.38;;;11.65;100.00
27984;BME280;15317;50.360;8.726;2024-02-15T17:05:58;99456.84;;;11.74;100.00
27984;BME280;15317;50.360;8.726;2024-02-15T17:11:04;99458.53;;;11.67;100.00
27984;BME280;15317;50.360;8.726;2024-02-15T17:16:08;99455.09;;;11.57;100.00
27984;BME280;15317;50.360;8.726;2024-02-15T17:21:11;99462.06;;;11.59;100.00
27984;BME280;15317;50.360;8.726;2024-02-15T17:26:15;99456.44;;;11.44;100.00
27984;BME280;15317;50.360;8.726;2024-02-15T17:31:20;99447.19;;;11.29;100.00
27984;BME280;15317;50.360;8.726;2024-02-15T17:36:24;99463.00;;;11.26;100.00
27984;BME280;15317;50.360;8.726;2024-02-15T17:41:28;99467.06;;;11.22;100.00
27984;BME280;15317;50.360;8.726;2024-02-15T17:46:34;99458.03;;;11.21;100.00
27984;BME280;15317;50.360;8.726;2024-02-15T17:51:38;99456.44;;;11.02;100.00
27984;BME280;15317;50.360;8.726;2024-02-15T17:56:44;99452.34;;;10.90;100.00
27984;BME280;15317;50.360;8.726;2024-02-15T18:01:51;99446.81;;;10.74;100.00
27984;BME280;15317;50.360;8.726;2024-02-15T18:06:54;99449.25;;;10.59;100.00
27984;BME280;15317;50.360;8.726;2024-02-15T18:11:58;99449.69;;;10.47;100.00
27984;BME280;15317;50.360;8.726;2024-02-15T18:17:03;99426.91;;;10.40;100.00
27984;BME280;15317;50.360;8.726;2024-02-15T18:22:06;99418.25;;;10.36;100.00
27984;BME280;15317;50.360;8.726;2024-02-15T18:27:09;99420.97;;;10.36;100.00
27984;BME280;15317;50.360;8.726;2024-02-15T18:32:15;99405.81;;;10.59;100.00
27984;BME280;15317;50.360;8.726;2024-02-15T18:37:20;99389.06;;;10.72;100.00
27984;BME280;15317;50.360;8.726;2024-02-15T18:42:25;99414.28;;;10.90;100.00
27984;BME280;15317;50.360;8.726;2024-02-15T18:47:30;99427.19;;;10.88;100.00
27984;BME280;15317;50.360;8.726;2024-02-15T18:52:33;99406.94;;;10.83;100.00
27984;BME280;15317;50.360;8.726;2024-02-15T18:57:36;99413.25;;;10.83;100.00
27984;BME280;15317;50.360;8.726;2024-02-15T19:02:41;99427.63;;;10.76;100.00
27984;BME280;15317;50.360;8.726;2024-02-15T19:07:44;99414.09;;;10.84;100.00
27984;BME280;15317;50.360;8.726;2024-02-15T19:12:48;99395.06;;;10.84;100.00
27984;BME280;15317;50.360;8.726;2024-02-15T19:17:55;99378.03;;;10.74;100.00
27984;BME280;15317;50.360;8.726;2024-02-15T19:22:58;99388.66;;;10.59;100.00
27984;BME280;15317;50.360;8.726;2024-02-15T19:28:02;99379.94;;;10.47;100.00
27984;BME280;15317;50.360;8.726;2024-02-15T19:33:09;99378.75;;;10.42;100.00
27984;BME280;15317;50.360;8.726;2024-02-15T19:38:12;99371.13;;;10.45;100.00
27984;BME280;15317;50.360;8.726;2024-02-15T19:43:16;99364.31;;;10.41;100.00
27984;BME280;15317;50.360;8.726;2024-02-15T19:48:20;99360.38;;;10.36;100.00
27984;BME280;15317;50.360;8.726;2024-02-15T19:53:25;99353.13;;;10.44;100.00
27984;BME280;15317;50.360;8.726;2024-02-15T19:58:28;99350.75;;;10.41;100.00
27984;BME280;15317;50.360;8.726;2024-02-15T20:03:33;99340.88;;;10.40;100.00
27984;BME280;15317;50.360;8.726;2024-02-15T20:08:36;99345.81;;;10.45;100.00
27984;BME280;15317;50.360;8.726;2024-02-15T20:13:40;99353.47;;;10.41;100.00
27984;BME280;15317;50.360;8.726;2024-02-15T20:18:45;99376.47;;;10.29;100.00
27984;BME280;15317;50.360;8.726;2024-02-15T20:23:49;99354.31;;;10.16;100.00
27984;BME280;15317;50.360;8.726;2024-02-15T20:28:53;99353.88;;;10.03;100.00
27984;BME280;15317;50.360;8.726;2024-02-15T20:33:58;99356.63;;;9.85;100.00
27984;BME280;15317;50.360;8.726;2024-02-15T20:39:01;99359.63;;;9.74;100.00
27984;BME280;15317;50.360;8.726;2024-02-15T20:44:05;99359.69;;;9.64;100.00
27984;BME280;15317;50.360;8.726;2024-02-15T20:49:12;99345.75;;;9.59;100.00
27984;BME280;15317;50.360;8.726;2024-02-15T20:54:16;99329.13;;;9.54;100.00
27984;BME280;15317;50.360;8.726;2024-02-15T20:59:19;99344.31;;;9.47;100.00
27984;BME280;15317;50.360;8.726;2024-02-15T21:04:24;99352.25;;;9.66;100.00
27984;BME280;15317;50.360;8.726;2024-02-15T21:09:28;99353.34;;;9.73;100.00
27984;BME280;15317;50.360;8.726;2024-02-15T21:14:33;99351.09;;;9.69;100.00
27984;BME280;15317;50.360;8.726;2024-02-15T21:19:38;99356.97;;;9.64;100.00
27984;BME280;15317;50.360;8.726;2024-02-15T21:24:42;99353.34;;;9.56;100.00
27984;BME280;15317;50.360;8.726;2024-02-15T21:29:45;99350.72;;;9.46;100.00
27984;BME280;15317;50.360;8.726;2024-02-15T21:34:51;99351.88;;;9.43;100.00
27984;BME280;15317;50.360;8.726;2024-02-15T21:39:54;99345.09;;;9.39;100.00
27984;BME280;15317;50.360;8.726;2024-02-15T21:44:57;99337.16;;;9.28;100.00
27984;BME280;15317;50.360;8.726;2024-02-15T21:50:03;99330.44;;;9.15;100.00
27984;BME280;15317;50.360;8.726;2024-02-15T21:55:07;99328.97;;;9.02;100.00
27984;BME280;15317;50.360;8.726;2024-02-15T22:00:10;99329.19;;;8.91;100.00
27984;BME280;15317;50.360;8.726;2024-02-15T22:05:15;99321.44;;;8.79;100.00
27984;BME280;15317;50.360;8.726;2024-02-15T22:10:19;99320.13;;;8.65;100.00
27984;BME280;15317;50.360;8.726;2024-02-15T22:15:22;99325.09;;;8.60;100.00
27984;BME280;15317;50.360;8.726;2024-02-15T22:20:28;99320.47;;;8.52;100.00
27984;BME280;15317;50.360;8.726;2024-02-15T22:25:31;99327.25;;;8.39;100.00
27984;BME280;15317;50.360;8.726;2024-02-15T22:30:34;99317.28;;;8.29;100.00
27984;BME280;15317;50.360;8.726;2024-02-15T22:35:39;99328.97;;;8.20;100.00
27984;BME280;15317;50.360;8.726;2024-02-15T22:40:42;99325.63;;;8.09;100.00
27984;BME280;15317;50.360;8.726;2024-02-15T22:45:45;99312.44;;;7.96;100.00
27984;BME280;15317;50.360;8.726;2024-02-15T22:50:51;99316.59;;;7.90;100.00
27984;BME280;15317;50.360;8.726;2024-02-15T22:55:54;99323.13;;;7.88;100.00
27984;BME280;15317;50.360;8.726;2024-02-15T23:00:58;99331.38;;;7.96;100.00
27984;BME280;15317;50.360;8.726;2024-02-15T23:06:04;99324.63;;;8.10;100.00
27984;BME280;15317;50.360;8.726;2024-02-15T23:11:09;99325.59;;;8.18;100.00
27984;BME280;15317;50.360;8.726;2024-02-15T23:16:12;99332.69;;;8.19;100.00
27984;BME280;15317;50.360;8.726;2024-02-15T23:21:19;99337.25;;;8.19;100.00
27984;BME280;15317;50.360;8.726;2024-02-15T23:26:23;99353.06;;;8.23;100.00
27984;BME280;15317;50.360;8.726;2024-02-15T23:31:27;99346.63;;;8.24;100.00
27984;BME280;15317;50.360;8.726;2024-02-15T23:36:31;99350.34;;;8.23;100.00
27984;BME280;15317;50.360;8.726;2024-02-15T23:41:52;99346.94;;;8.21;100.00
27984;BME280;15317;50.360;8.726;2024-02-15T23:46:55;99343.09;;;8.24;100.00
27984;BME280;15317;50.360;8.726;2024-02-15T23:52:00;99340.38;;;8.24;100.00
27984;BME280;15317;50.360;8.726;2024-02-15T23:57:04;99349.47;;;8.32;100.00
